sensor_id;sensor_type;location;lat;lon;timestamp;P1;durP1;ratioP1;P2;durP2;ratioP2
74674;SDS011;63200;48.810;12.352;2023-06-19T00:00:38;8.70;;;6.75;;
74674;SDS011;63200;48.810;12.352;2023-06-19T00:03:04;9.15;;;6.20;;
74674;SDS011;63200;48.810;12.352;2023-06-19T00:05:30;11.32;;;7.15;;
74674;SDS011;63200;48.810;12.352;2023-06-19T00:07:55;7.97;;;6.25;;
74674;SDS011;63200;48.810;12.352;2023-06-19T00:10:21;8.98;;;6.75;;
74674;SDS011;63200;48.810;12.352;2023-06-19T00:12:46;7.97;;;6.68;;
74674;SDS011;63200;48.810;12.352;2023-06-19T00:15:12;7.90;;;6.57;;
74674;SDS011;63200;48.810;12.352;2023-06-19T00:17:37;9.77;;;6.63;;
74674;SDS011;63200;48.810;12.352;2023-06-19T00:20:03;9.77;;;6.55;;
74674;SDS011;63200;48.810;12.352;2023-06-19T00:22:30;8.15;;;6.68;;
74674;SDS011;63200;48.810;12.352;2023-06-19T00:24:56;11.30;;;6.75;;
74674;SDS011;63200;48.810;12.352;2023-06-19T00:27:21;10.73;;;6.85;;
74674;SDS011;63200;48.810;12.352;2023-06-19T00:29:47;7.07;;;6.30;;
74674;SDS011;63200;48.810;12.352;2023-06-19T00:32:12;6.63;;;5.90;;
74674;SDS011;63200;48.810;12.352;2023-06-19T00:34:38;7.03;;;6.25;;
74674;SDS011;63200;48.810;12.352;2023-06-19T00:37:03;6.63;;;5.78;;
74674;SDS011;63200;48.810;12.352;2023-06-19T00:39:29;8.60;;;6.32;;
74674;SDS011;63200;48.810;12.352;2023-06-19T00:41:55;6.63;;;5.88;;
74674;SDS011;63200;48.810;12.352;2023-06-19T00:44:21;10.02;;;6.43;;
74674;SDS011;63200;48.810;12.352;2023-06-19T00:46:47;8.68;;;6.78;;
74674;SDS011;63200;48.810;12.352;2023-06-19T00:49:16;7.20;;;5.60;;
74674;SDS011;63200;48.810;12.352;2023-06-19T00:51:41;7.18;;;6.47;;
74674;SDS011;63200;48.810;12.352;2023-06-19T00:54:07;9.20;;;6.75;;
74674;SDS011;63200;48.810;12.352;2023-06-19T00:56:32;10.05;;;7.13;;
74674;SDS011;63200;48.810;12.352;2023-06-19T00:58:59;7.95;;;6.57;;
74674;SDS011;63200;48.810;12.352;2023-06-19T01:01:26;10.32;;;6.93;;
74674;SDS011;63200;48.810;12.352;2023-06-19T01:03:52;8.45;;;7.32;;
74674;SDS011;63200;48.810;12.352;2023-06-19T01:06:22;9.48;;;7.60;;
74674;SDS011;63200;48.810;12.352;2023-06-19T01:08:56;16.17;;;7.38;;
74674;SDS011;63200;48.810;12.352;2023-06-19T01:11:28;8.48;;;7.05;;
74674;SDS011;63200;48.810;12.352;2023-06-19T01:14:06;8.52;;;7.22;;
74674;SDS011;63200;48.810;12.352;2023-06-19T01:16:34;8.23;;;7.28;;
74674;SDS011;63200;48.810;12.352;2023-06-19T01:19:00;9.43;;;7.70;;
74674;SDS011;63200;48.810;12.352;2023-06-19T01:21:26;7.07;;;6.20;;
74674;SDS011;63200;48.810;12.352;2023-06-19T01:23:51;11.73;;;7.40;;
74674;SDS011;63200;48.810;12.352;2023-06-19T01:26:17;10.40;;;6.75;;
74674;SDS011;63200;48.810;12.352;2023-06-19T01:28:43;7.63;;;6.82;;
74674;SDS011;63200;48.810;12.352;2023-06-19T01:34:18;9.35;;;7.07;;
74674;SDS011;63200;48.810;12.352;2023-06-19T01:36:45;7.72;;;5.93;;
74674;SDS011;63200;48.810;12.352;2023-06-19T01:39:14;7.15;;;6.45;;
74674;SDS011;63200;48.810;12.352;2023-06-19T01:41:40;8.27;;;7.13;;
74674;SDS011;63200;48.810;12.352;2023-06-19T01:44:06;7.72;;;6.95;;
74674;SDS011;63200;48.810;12.352;2023-06-19T01:46:32;6.82;;;6.15;;
74674;SDS011;63200;48.810;12.352;2023-06-19T01:48:57;9.30;;;6.90;;
74674;SDS011;63200;48.810;12.352;2023-06-19T01:51:24;13.25;;;7.20;;
74674;SDS011;63200;48.810;12.352;2023-06-19T01:53:49;8.25;;;7.43;;
74674;SDS011;63200;48.810;12.352;2023-06-19T01:56:14;7.88;;;7.07;;
74674;SDS011;63200;48.810;12.352;2023-06-19T01:58:40;8.38;;;7.07;;
74674;SDS011;63200;48.810;12.352;2023-06-19T02:01:05;12.32;;;7.18;;
74674;SDS011;63200;48.810;12.352;2023-06-19T02:03:30;12.73;;;6.75;;
74674;SDS011;63200;48.810;12.352;2023-06-19T02:05:56;9.68;;;6.68;;
74674;SDS011;63200;48.810;12.352;2023-06-19T02:08:21;7.03;;;5.90;;
74674;SDS011;63200;48.810;12.352;2023-06-19T02:10:46;9.00;;;6.75;;
74674;SDS011;63200;48.810;12.352;2023-06-19T02:13:12;8.80;;;6.38;;
74674;SDS011;63200;48.810;12.352;2023-06-19T02:15:38;7.45;;;6.47;;
74674;SDS011;63200;48.810;12.352;2023-06-19T02:18:03;7.65;;;6.35;;
74674;SDS011;63200;48.810;12.352;2023-06-19T02:20:29;8.48;;;6.40;;
74674;SDS011;63200;48.810;12.352;2023-06-19T02:22:54;10.43;;;6.68;;
74674;SDS011;63200;48.810;12.352;2023-06-19T02:25:19;8.18;;;6.68;;
74674;SDS011;63200;48.810;12.352;2023-06-19T02:27:45;9.63;;;7.00;;
74674;SDS011;63200;48.810;12.352;2023-06-19T02:30:10;9.18;;;7.50;;
74674;SDS011;63200;48.810;12.352;2023-06-19T02:32:36;9.48;;;7.15;;
74674;SDS011;63200;48.810;12.352;2023-06-19T02:35:02;18.77;;;8.13;;
74674;SDS011;63200;48.810;12.352;2023-06-19T02:37:28;8.10;;;7.18;;
74674;SDS011;63200;48.810;12.352;2023-06-19T02:39:54;10.55;;;7.70;;
74674;SDS011;63200;48.810;12.352;2023-06-19T02:42:20;9.15;;;7.18;;
74674;SDS011;63200;48.810;12.352;2023-06-19T02:44:45;8.00;;;7.20;;
74674;SDS011;63200;48.810;12.352;2023-06-19T02:47:10;11.32;;;7.28;;
74674;SDS011;63200;48.810;12.352;2023-06-19T02:49:36;8.32;;;7.50;;
74674;SDS011;63200;48.810;12.352;2023-06-19T02:52:01;9.57;;;7.60;;
74674;SDS011;63200;48.810;12.352;2023-06-19T02:54:26;12.25;;;8.00;;
74674;SDS011;63200;48.810;12.352;2023-06-19T02:56:51;13.32;;;7.72;;
74674;SDS011;63200;48.810;12.352;2023-06-19T02:59:17;9.27;;;7.50;;
74674;SDS011;63200;48.810;12.352;2023-06-19T03:01:42;9.88;;;7.97;;
74674;SDS011;63200;48.810;12.352;2023-06-19T03:04:07;10.63;;;7.57;;
74674;SDS011;63200;48.810;12.352;2023-06-19T03:06:33;10.55;;;7.32;;
74674;SDS011;63200;48.810;12.352;2023-06-19T03:09:04;10.68;;;7.63;;
74674;SDS011;63200;48.810;12.352;2023-06-19T03:11:30;9.25;;;7.32;;
74674;SDS011;63200;48.810;12.352;2023-06-19T03:13:55;12.82;;;8.00;;
74674;SDS011;63200;48.810;12.352;2023-06-19T03:16:21;8.52;;;7.03;;
74674;SDS011;63200;48.810;12.352;2023-06-19T03:18:46;9.15;;;7.70;;
74674;SDS011;63200;48.810;12.352;2023-06-19T03:21:12;9.23;;;6.75;;
74674;SDS011;63200;48.810;12.352;2023-06-19T03:23:38;12.43;;;8.07;;
74674;SDS011;63200;48.810;12.352;2023-06-19T03:26:03;8.43;;;7.38;;
74674;SDS011;63200;48.810;12.352;2023-06-19T03:28:29;13.70;;;7.93;;
74674;SDS011;63200;48.810;12.352;2023-06-19T03:30:54;8.60;;;7.43;;
74674;SDS011;63200;48.810;12.352;2023-06-19T03:33:20;9.73;;;7.93;;
74674;SDS011;63200;48.810;12.352;2023-06-19T03:35:45;11.32;;;8.10;;
74674;SDS011;63200;48.810;12.352;2023-06-19T03:38:10;11.85;;;8.20;;
74674;SDS011;63200;48.810;12.352;2023-06-19T03:40:36;11.93;;;8.48;;
74674;SDS011;63200;48.810;12.352;2023-06-19T03:43:01;10.15;;;7.88;;
74674;SDS011;63200;48.810;12.352;2023-06-19T03:45:26;9.23;;;8.05;;
74674;SDS011;63200;48.810;12.352;2023-06-19T03:47:52;12.27;;;8.23;;
74674;SDS011;63200;48.810;12.352;2023-06-19T03:50:18;12.77;;;8.15;;
74674;SDS011;63200;48.810;12.352;2023-06-19T03:52:43;12.50;;;8.95;;
74674;SDS011;63200;48.810;12.352;2023-06-19T03:55:08;11.38;;;8.80;;
74674;SDS011;63200;48.810;12.352;2023-06-19T03:57:34;11.88;;;8.30;;
74674;SDS011;63200;48.810;12.352;2023-06-19T03:59:59;12.52;;;8.70;;
74674;SDS011;63200;48.810;12.352;2023-06-19T04:02:24;13.93;;;8.43;;
74674;SDS011;63200;48.810;12.352;2023-06-19T04:04:50;10.00;;;8.18;;
74674;SDS011;63200;48.810;12.352;2023-06-19T04:07:16;10.23;;;8.32;;
74674;SDS011;63200;48.810;12.352;2023-06-19T04:09:41;14.02;;;8.40;;
74674;SDS011;63200;48.810;12.352;2023-06-19T04:12:06;10.95;;;8.35;;
74674;SDS011;63200;48.810;12.352;2023-06-19T04:14:32;16.20;;;8.77;;
74674;SDS011;63200;48.810;12.352;2023-06-19T04:16:57;9.63;;;7.93;;
74674;SDS011;63200;48.810;12.352;2023-06-19T04:19:23;10.70;;;8.23;;
74674;SDS011;63200;48.810;12.352;2023-06-19T04:21:48;9.25;;;8.00;;
74674;SDS011;63200;48.810;12.352;2023-06-19T04:24:13;9.98;;;7.97;;
74674;SDS011;63200;48.810;12.352;2023-06-19T04:26:39;10.38;;;8.15;;
74674;SDS011;63200;48.810;12.352;2023-06-19T04:29:04;11.95;;;7.40;;
74674;SDS011;63200;48.810;12.352;2023-06-19T04:31:31;13.48;;;7.60;;
74674;SDS011;63200;48.810;12.352;2023-06-19T04:33:57;11.60;;;7.97;;
74674;SDS011;63200;48.810;12.352;2023-06-19T04:36:22;13.00;;;8.80;;
74674;SDS011;63200;48.810;12.352;2023-06-19T04:38:48;16.73;;;9.07;;
74674;SDS011;63200;48.810;12.352;2023-06-19T04:41:16;12.80;;;8.35;;
74674;SDS011;63200;48.810;12.352;2023-06-19T04:43:42;10.73;;;7.20;;
74674;SDS011;63200;48.810;12.352;2023-06-19T04:46:08;11.48;;;9.02;;
74674;SDS011;63200;48.810;12.352;2023-06-19T04:48:33;14.15;;;9.77;;
74674;SDS011;63200;48.810;12.352;2023-06-19T04:51:01;10.95;;;9.20;;
74674;SDS011;63200;48.810;12.352;2023-06-19T04:53:27;13.95;;;8.35;;
74674;SDS011;63200;48.810;12.352;2023-06-19T04:55:53;10.38;;;8.52;;
74674;SDS011;63200;48.810;12.352;2023-06-19T04:58:20;12.57;;;9.05;;
74674;SDS011;63200;48.810;12.352;2023-06-19T05:00:46;12.95;;;8.48;;
74674;SDS011;63200;48.810;12.352;2023-06-19T05:03:16;11.57;;;8.65;;
74674;SDS011;63200;48.810;12.352;2023-06-19T05:05:44;11.60;;;8.65;;
74674;SDS011;63200;48.810;12.352;2023-06-19T05:08:10;11.43;;;8.32;;
74674;SDS011;63200;48.810;12.352;2023-06-19T05:10:35;14.90;;;9.00;;
74674;SDS011;63200;48.810;12.352;2023-06-19T05:13:00;12.48;;;8.07;;
74674;SDS011;63200;48.810;12.352;2023-06-19T05:15:27;9.45;;;7.90;;
74674;SDS011;63200;48.810;12.352;2023-06-19T05:17:52;12.57;;;8.32;;
74674;SDS011;63200;48.810;12.352;2023-06-19T05:20:18;9.25;;;7.60;;
74674;SDS011;63200;48.810;12.352;2023-06-19T05:22:43;12.00;;;8.30;;
74674;SDS011;63200;48.810;12.352;2023-06-19T05:25:09;10.63;;;7.80;;
74674;SDS011;63200;48.810;12.352;2023-06-19T05:27:34;15.27;;;8.40;;
74674;SDS011;63200;48.810;12.352;2023-06-19T05:29:59;10.63;;;8.23;;
74674;SDS011;63200;48.810;12.352;2023-06-19T05:32:25;8.60;;;7.72;;
74674;SDS011;63200;48.810;12.352;2023-06-19T05:34:50;9.68;;;8.05;;
74674;SDS011;63200;48.810;12.352;2023-06-19T05:37:16;9.77;;;7.93;;
74674;SDS011;63200;48.810;12.352;2023-06-19T05:39:41;11.02;;;7.43;;
74674;SDS011;63200;48.810;12.352;2023-06-19T05:42:07;18.58;;;8.18;;
74674;SDS011;63200;48.810;12.352;2023-06-19T05:44:32;12.85;;;8.27;;
74674;SDS011;63200;48.810;12.352;2023-06-19T05:46:57;15.88;;;9.05;;
74674;SDS011;63200;48.810;12.352;2023-06-19T05:49:23;12.95;;;9.20;;
74674;SDS011;63200;48.810;12.352;2023-06-19T05:51:48;10.20;;;8.00;;
74674;SDS011;63200;48.810;12.352;2023-06-19T05:54:13;11.75;;;8.68;;
74674;SDS011;63200;48.810;12.352;2023-06-19T05:56:39;12.20;;;8.25;;
74674;SDS011;63200;48.810;12.352;2023-06-19T05:59:04;13.80;;;9.55;;
74674;SDS011;63200;48.810;12.352;2023-06-19T06:01:30;10.57;;;8.23;;
74674;SDS011;63200;48.810;12.352;2023-06-19T06:03:55;10.00;;;8.27;;
74674;SDS011;63200;48.810;12.352;2023-06-19T06:06:22;13.02;;;8.70;;
74674;SDS011;63200;48.810;12.352;2023-06-19T06:08:48;12.02;;;8.27;;
74674;SDS011;63200;48.810;12.352;2023-06-19T06:11:13;10.05;;;8.60;;
74674;SDS011;63200;48.810;12.352;2023-06-19T06:13:39;14.95;;;8.43;;
74674;SDS011;63200;48.810;12.352;2023-06-19T06:16:04;12.52;;;8.40;;
74674;SDS011;63200;48.810;12.352;2023-06-19T06:18:29;11.27;;;9.25;;
74674;SDS011;63200;48.810;12.352;2023-06-19T06:20:55;13.05;;;8.70;;
74674;SDS011;63200;48.810;12.352;2023-06-19T06:23:20;14.80;;;8.50;;
74674;SDS011;63200;48.810;12.352;2023-06-19T06:25:45;14.48;;;9.55;;
74674;SDS011;63200;48.810;12.352;2023-06-19T06:28:11;13.65;;;8.98;;
74674;SDS011;63200;48.810;12.352;2023-06-19T06:30:36;15.98;;;8.90;;
74674;SDS011;63200;48.810;12.352;2023-06-19T06:33:02;12.88;;;9.25;;
74674;SDS011;63200;48.810;12.352;2023-06-19T06:35:27;21.83;;;9.82;;
74674;SDS011;63200;48.810;12.352;2023-06-19T06:37:53;19.55;;;9.63;;
74674;SDS011;63200;48.810;12.352;2023-06-19T06:40:18;21.40;;;8.90;;
74674;SDS011;63200;48.810;12.352;2023-06-19T06:42:44;20.02;;;9.48;;
74674;SDS011;63200;48.810;12.352;2023-06-19T06:45:09;14.48;;;9.35;;
74674;SDS011;63200;48.810;12.352;2023-06-19T06:47:35;12.73;;;8.50;;
74674;SDS011;63200;48.810;12.352;2023-06-19T06:50:00;13.18;;;9.02;;
74674;SDS011;63200;48.810;12.352;2023-06-19T06:52:25;12.18;;;8.73;;
74674;SDS011;63200;48.810;12.352;2023-06-19T06:54:52;16.80;;;8.60;;
74674;SDS011;63200;48.810;12.352;2023-06-19T06:57:18;11.32;;;9.00;;
74674;SDS011;63200;48.810;12.352;2023-06-19T06:59:43;9.95;;;8.52;;
74674;SDS011;63200;48.810;12.352;2023-06-19T07:02:09;10.13;;;8.70;;
74674;SDS011;63200;48.810;12.352;2023-06-19T07:04:34;14.77;;;8.60;;
74674;SDS011;63200;48.810;12.352;2023-06-19T07:06:59;13.60;;;8.57;;
74674;SDS011;63200;48.810;12.352;2023-06-19T07:09:25;10.20;;;9.07;;
74674;SDS011;63200;48.810;12.352;2023-06-19T07:11:50;9.75;;;8.25;;
74674;SDS011;63200;48.810;12.352;2023-06-19T07:14:15;11.73;;;8.43;;
74674;SDS011;63200;48.810;12.352;2023-06-19T07:16:44;12.13;;;8.48;;
74674;SDS011;63200;48.810;12.352;2023-06-19T07:19:10;10.68;;;8.23;;
74674;SDS011;63200;48.810;12.352;2023-06-19T07:21:36;8.80;;;7.90;;
74674;SDS011;63200;48.810;12.352;2023-06-19T07:24:01;10.75;;;8.68;;
74674;SDS011;63200;48.810;12.352;2023-06-19T07:26:27;9.00;;;7.82;;
74674;SDS011;63200;48.810;12.352;2023-06-19T07:28:52;11.80;;;8.40;;
74674;SDS011;63200;48.810;12.352;2023-06-19T07:31:18;12.20;;;9.02;;
74674;SDS011;63200;48.810;12.352;2023-06-19T07:33:43;10.35;;;8.52;;
74674;SDS011;63200;48.810;12.352;2023-06-19T07:36:08;9.80;;;8.82;;
74674;SDS011;63200;48.810;12.352;2023-06-19T07:38:38;11.50;;;8.75;;
74674;SDS011;63200;48.810;12.352;2023-06-19T07:41:04;12.50;;;9.20;;
74674;SDS011;63200;48.810;12.352;2023-06-19T07:43:29;9.93;;;8.68;;
74674;SDS011;63200;48.810;12.352;2023-06-19T07:45:54;9.55;;;8.55;;
74674;SDS011;63200;48.810;12.352;2023-06-19T07:48:20;10.07;;;8.38;;
74674;SDS011;63200;48.810;12.352;2023-06-19T07:50:45;13.48;;;8.23;;
74674;SDS011;63200;48.810;12.352;2023-06-19T07:53:11;10.40;;;8.68;;
74674;SDS011;63200;48.810;12.352;2023-06-19T07:55:36;9.68;;;8.63;;
74674;SDS011;63200;48.810;12.352;2023-06-19T07:58:01;11.02;;;8.50;;
74674;SDS011;63200;48.810;12.352;2023-06-19T08:00:27;9.45;;;8.38;;
74674;SDS011;63200;48.810;12.352;2023-06-19T08:02:52;11.82;;;9.27;;
74674;SDS011;63200;48.810;12.352;2023-06-19T08:05:17;8.88;;;7.97;;
74674;SDS011;63200;48.810;12.352;2023-06-19T08:07:43;12.60;;;8.70;;
74674;SDS011;63200;48.810;12.352;2023-06-19T08:10:09;12.32;;;8.68;;
74674;SDS011;63200;48.810;12.352;2023-06-19T08:12:34;9.05;;;8.13;;
74674;SDS011;63200;48.810;12.352;2023-06-19T08:15:00;12.35;;;8.95;;
74674;SDS011;63200;48.810;12.352;2023-06-19T08:17:25;11.55;;;9.00;;
74674;SDS011;63200;48.810;12.352;2023-06-19T08:19:50;12.57;;;8.65;;
74674;SDS011;63200;48.810;12.352;2023-06-19T08:22:16;11.40;;;8.55;;
74674;SDS011;63200;48.810;12.352;2023-06-19T08:24:41;10.52;;;9.23;;
74674;SDS011;63200;48.810;12.352;2023-06-19T08:27:07;12.15;;;8.70;;
74674;SDS011;63200;48.810;12.352;2023-06-19T08:29:32;13.25;;;9.23;;
74674;SDS011;63200;48.810;12.352;2023-06-19T08:31:57;12.43;;;9.27;;
74674;SDS011;63200;48.810;12.352;2023-06-19T08:34:23;11.77;;;8.60;;
74674;SDS011;63200;48.810;12.352;2023-06-19T08:36:48;10.23;;;8.98;;
74674;SDS011;63200;48.810;12.352;2023-06-19T08:39:14;9.98;;;8.95;;
74674;SDS011;63200;48.810;12.352;2023-06-19T08:41:39;15.68;;;9.23;;
74674;SDS011;63200;48.810;12.352;2023-06-19T08:44:06;10.32;;;9.23;;
74674;SDS011;63200;48.810;12.352;2023-06-19T08:46:33;12.68;;;9.15;;
74674;SDS011;63200;48.810;12.352;2023-06-19T08:48:59;10.07;;;8.88;;
74674;SDS011;63200;48.810;12.352;2023-06-19T08:51:26;11.13;;;9.23;;
74674;SDS011;63200;48.810;12.352;2023-06-19T08:53:59;11.80;;;9.70;;
74674;SDS011;63200;48.810;12.352;2023-06-19T08:56:26;11.90;;;9.13;;
74674;SDS011;63200;48.810;12.352;2023-06-19T08:58:51;11.13;;;8.88;;
74674;SDS011;63200;48.810;12.352;2023-06-19T09:01:18;10.88;;;9.35;;
74674;SDS011;63200;48.810;12.352;2023-06-19T09:03:44;11.52;;;9.20;;
74674;SDS011;63200;48.810;12.352;2023-06-19T09:06:11;12.82;;;10.27;;
74674;SDS011;63200;48.810;12.352;2023-06-19T09:08:39;10.30;;;9.25;;
74674;SDS011;63200;48.810;12.352;2023-06-19T09:11:05;13.77;;;10.15;;
74674;SDS011;63200;48.810;12.352;2023-06-19T09:13:31;10.48;;;9.35;;
74674;SDS011;63200;48.810;12.352;2023-06-19T09:16:02;11.48;;;9.60;;
74674;SDS011;63200;48.810;12.352;2023-06-19T09:18:30;12.25;;;9.43;;
74674;SDS011;63200;48.810;12.352;2023-06-19T09:20:56;10.52;;;9.40;;
74674;SDS011;63200;48.810;12.352;2023-06-19T09:23:22;11.13;;;8.85;;
74674;SDS011;63200;48.810;12.352;2023-06-19T09:25:53;12.57;;;9.45;;
74674;SDS011;63200;48.810;12.352;2023-06-19T09:28:20;11.40;;;9.52;;
74674;SDS011;63200;48.810;12.352;2023-06-19T09:30:56;11.18;;;9.20;;
74674;SDS011;63200;48.810;12.352;2023-06-19T09:33:27;12.52;;;9.00;;
74674;SDS011;63200;48.810;12.352;2023-06-19T09:35:55;12.68;;;10.15;;
74674;SDS011;63200;48.810;12.352;2023-06-19T09:38:23;10.90;;;9.70;;
74674;SDS011;63200;48.810;12.352;2023-06-19T09:40:51;10.95;;;9.85;;
74674;SDS011;63200;48.810;12.352;2023-06-19T09:43:18;10.98;;;9.88;;
74674;SDS011;63200;48.810;12.352;2023-06-19T09:45:48;13.13;;;9.20;;
74674;SDS011;63200;48.810;12.352;2023-06-19T09:48:20;10.38;;;9.38;;
74674;SDS011;63200;48.810;12.352;2023-06-19T09:50:51;10.80;;;9.80;;
74674;SDS011;63200;48.810;12.352;2023-06-19T09:53:22;11.15;;;10.07;;
74674;SDS011;63200;48.810;12.352;2023-06-19T09:55:48;10.60;;;9.13;;
74674;SDS011;63200;48.810;12.352;2023-06-19T09:58:18;11.00;;;9.05;;
74674;SDS011;63200;48.810;12.352;2023-06-19T10:00:45;11.35;;;9.35;;
74674;SDS011;63200;48.810;12.352;2023-06-19T10:03:12;9.82;;;8.80;;
74674;SDS011;63200;48.810;12.352;2023-06-19T10:05:38;10.40;;;9.40;;
74674;SDS011;63200;48.810;12.352;2023-06-19T10:08:04;9.88;;;8.98;;
74674;SDS011;63200;48.810;12.352;2023-06-19T10:10:29;9.52;;;8.30;;
74674;SDS011;63200;48.810;12.352;2023-06-19T10:12:56;11.85;;;8.48;;
74674;SDS011;63200;48.810;12.352;2023-06-19T10:15:32;11.60;;;8.68;;
74674;SDS011;63200;48.810;12.352;2023-06-19T10:18:01;13.77;;;9.13;;
74674;SDS011;63200;48.810;12.352;2023-06-19T10:20:29;9.85;;;8.85;;
74674;SDS011;63200;48.810;12.352;2023-06-19T10:25:37;9.73;;;8.50;;
74674;SDS011;63200;48.810;12.352;2023-06-19T10:28:04;11.80;;;8.82;;
74674;SDS011;63200;48.810;12.352;2023-06-19T10:30:40;10.70;;;8.70;;
74674;SDS011;63200;48.810;12.352;2023-06-19T10:33:06;14.73;;;8.35;;
74674;SDS011;63200;48.810;12.352;2023-06-19T10:35:37;10.02;;;8.98;;
74674;SDS011;63200;48.810;12.352;2023-06-19T10:38:04;13.52;;;8.60;;
74674;SDS011;63200;48.810;12.352;2023-06-19T10:40:30;11.40;;;8.27;;
74674;SDS011;63200;48.810;12.352;2023-06-19T10:42:55;12.55;;;9.27;;
74674;SDS011;63200;48.810;12.352;2023-06-19T10:45:21;12.50;;;8.57;;
74674;SDS011;63200;48.810;12.352;2023-06-19T10:47:53;8.77;;;7.97;;
74674;SDS011;63200;48.810;12.352;2023-06-19T10:50:19;13.40;;;8.63;;
74674;SDS011;63200;48.810;12.352;2023-06-19T10:52:45;9.95;;;8.98;;
74674;SDS011;63200;48.810;12.352;2023-06-19T10:55:13;10.57;;;9.27;;
74674;SDS011;63200;48.810;12.352;2023-06-19T10:57:40;10.05;;;9.13;;
74674;SDS011;63200;48.810;12.352;2023-06-19T11:00:09;12.27;;;9.25;;
74674;SDS011;63200;48.810;12.352;2023-06-19T11:02:39;12.27;;;9.05;;
74674;SDS011;63200;48.810;12.352;2023-06-19T11:05:07;9.38;;;8.35;;
74674;SDS011;63200;48.810;12.352;2023-06-19T11:07:33;8.98;;;8.07;;
74674;SDS011;63200;48.810;12.352;2023-06-19T11:09:58;10.90;;;8.82;;
74674;SDS011;63200;48.810;12.352;2023-06-19T11:12:24;10.18;;;8.52;;
74674;SDS011;63200;48.810;12.352;2023-06-19T11:14:49;10.35;;;8.32;;
74674;SDS011;63200;48.810;12.352;2023-06-19T11:17:15;16.27;;;8.48;;
74674;SDS011;63200;48.810;12.352;2023-06-19T11:19:43;9.88;;;8.93;;
74674;SDS011;63200;48.810;12.352;2023-06-19T11:22:09;8.75;;;7.95;;
74674;SDS011;63200;48.810;12.352;2023-06-19T11:24:35;9.43;;;7.88;;
74674;SDS011;63200;48.810;12.352;2023-06-19T11:27:01;9.68;;;7.93;;
74674;SDS011;63200;48.810;12.352;2023-06-19T11:29:30;9.65;;;7.70;;
74674;SDS011;63200;48.810;12.352;2023-06-19T11:32:07;15.50;;;8.13;;
74674;SDS011;63200;48.810;12.352;2023-06-19T11:34:49;8.63;;;7.82;;
74674;SDS011;63200;48.810;12.352;2023-06-19T11:37:18;8.80;;;7.93;;
74674;SDS011;63200;48.810;12.352;2023-06-19T11:39:45;8.82;;;7.82;;
74674;SDS011;63200;48.810;12.352;2023-06-19T11:42:11;8.68;;;7.47;;
74674;SDS011;63200;48.810;12.352;2023-06-19T11:44:55;10.75;;;8.00;;
74674;SDS011;63200;48.810;12.352;2023-06-19T11:47:21;7.95;;;6.95;;
74674;SDS011;63200;48.810;12.352;2023-06-19T11:49:48;8.25;;;7.45;;
74674;SDS011;63200;48.810;12.352;2023-06-19T11:52:14;8.75;;;7.75;;
74674;SDS011;63200;48.810;12.352;2023-06-19T11:54:39;9.10;;;7.68;;
74674;SDS011;63200;48.810;12.352;2023-06-19T11:57:05;11.30;;;8.10;;
74674;SDS011;63200;48.810;12.352;2023-06-19T11:59:30;9.82;;;7.68;;
74674;SDS011;63200;48.810;12.352;2023-06-19T12:01:56;8.15;;;7.35;;
74674;SDS011;63200;48.810;12.352;2023-06-19T12:04:23;8.98;;;7.40;;
74674;SDS011;63200;48.810;12.352;2023-06-19T12:06:49;15.10;;;8.00;;
74674;SDS011;63200;48.810;12.352;2023-06-19T12:09:14;11.00;;;7.75;;
74674;SDS011;63200;48.810;12.352;2023-06-19T12:11:40;9.50;;;8.13;;
74674;SDS011;63200;48.810;12.352;2023-06-19T12:14:05;10.15;;;8.20;;
74674;SDS011;63200;48.810;12.352;2023-06-19T12:16:31;9.40;;;8.15;;
74674;SDS011;63200;48.810;12.352;2023-06-19T12:18:56;8.95;;;8.05;;
74674;SDS011;63200;48.810;12.352;2023-06-19T12:21:21;10.57;;;8.32;;
74674;SDS011;63200;48.810;12.352;2023-06-19T12:23:47;8.70;;;7.80;;
74674;SDS011;63200;48.810;12.352;2023-06-19T12:26:13;12.30;;;8.23;;
74674;SDS011;63200;48.810;12.352;2023-06-19T12:28:38;10.10;;;8.75;;
74674;SDS011;63200;48.810;12.352;2023-06-19T12:31:03;9.43;;;8.43;;
74674;SDS011;63200;48.810;12.352;2023-06-19T12:33:29;11.23;;;8.32;;
74674;SDS011;63200;48.810;12.352;2023-06-19T12:35:57;10.52;;;8.75;;
74674;SDS011;63200;48.810;12.352;2023-06-19T12:38:23;9.80;;;8.80;;
74674;SDS011;63200;48.810;12.352;2023-06-19T12:40:48;13.80;;;8.80;;
74674;SDS011;63200;48.810;12.352;2023-06-19T12:43:14;11.50;;;8.60;;
74674;SDS011;63200;48.810;12.352;2023-06-19T12:45:39;11.98;;;8.82;;
74674;SDS011;63200;48.810;12.352;2023-06-19T12:48:06;9.45;;;8.23;;
74674;SDS011;63200;48.810;12.352;2023-06-19T12:50:31;11.30;;;8.95;;
74674;SDS011;63200;48.810;12.352;2023-06-19T12:52:57;12.30;;;9.32;;
74674;SDS011;63200;48.810;12.352;2023-06-19T12:55:22;9.98;;;9.00;;
74674;SDS011;63200;48.810;12.352;2023-06-19T12:57:47;14.32;;;8.98;;
74674;SDS011;63200;48.810;12.352;2023-06-19T13:00:13;11.80;;;8.82;;
74674;SDS011;63200;48.810;12.352;2023-06-19T13:02:39;10.18;;;8.68;;
74674;SDS011;63200;48.810;12.352;2023-06-19T13:05:08;12.85;;;9.15;;
74674;SDS011;63200;48.810;12.352;2023-06-19T13:07:34;9.40;;;8.50;;
74674;SDS011;63200;48.810;12.352;2023-06-19T13:09:59;12.45;;;9.38;;
74674;SDS011;63200;48.810;12.352;2023-06-19T13:12:24;10.15;;;8.77;;
74674;SDS011;63200;48.810;12.352;2023-06-19T13:14:50;10.63;;;9.50;;
74674;SDS011;63200;48.810;12.352;2023-06-19T13:17:16;11.32;;;9.07;;
74674;SDS011;63200;48.810;12.352;2023-06-19T13:19:41;13.73;;;9.40;;
74674;SDS011;63200;48.810;12.352;2023-06-19T13:22:06;10.00;;;8.77;;
74674;SDS011;63200;48.810;12.352;2023-06-19T13:24:32;11.98;;;8.82;;
74674;SDS011;63200;48.810;12.352;2023-06-19T13:26:57;13.48;;;8.98;;
74674;SDS011;63200;48.810;12.352;2023-06-19T13:29:22;9.85;;;8.85;;
74674;SDS011;63200;48.810;12.352;2023-06-19T13:31:48;9.70;;;8.80;;
74674;SDS011;63200;48.810;12.352;2023-06-19T13:34:13;9.18;;;8.27;;
74674;SDS011;63200;48.810;12.352;2023-06-19T13:36:38;10.48;;;8.30;;
74674;SDS011;63200;48.810;12.352;2023-06-19T13:39:05;12.30;;;8.85;;
74674;SDS011;63200;48.810;12.352;2023-06-19T13:41:30;9.90;;;8.77;;
74674;SDS011;63200;48.810;12.352;2023-06-19T13:43:57;11.43;;;8.10;;
74674;SDS011;63200;48.810;12.352;2023-06-19T13:46:23;11.20;;;8.38;;
74674;SDS011;63200;48.810;12.352;2023-06-19T13:48:49;8.82;;;8.02;;
74674;SDS011;63200;48.810;12.352;2023-06-19T13:51:19;9.73;;;8.60;;
74674;SDS011;63200;48.810;12.352;2023-06-19T13:53:46;9.30;;;8.32;;
74674;SDS011;63200;48.810;12.352;2023-06-19T13:56:12;10.80;;;8.23;;
74674;SDS011;63200;48.810;12.352;2023-06-19T13:58:38;9.18;;;8.27;;
74674;SDS011;63200;48.810;12.352;2023-06-19T14:01:03;9.88;;;8.20;;
74674;SDS011;63200;48.810;12.352;2023-06-19T14:03:28;16.02;;;8.63;;
74674;SDS011;63200;48.810;12.352;2023-06-19T14:05:54;9.15;;;7.80;;
74674;SDS011;63200;48.810;12.352;2023-06-19T14:08:20;8.32;;;7.63;;
74674;SDS011;63200;48.810;12.352;2023-06-19T14:10:45;8.43;;;7.63;;
74674;SDS011;63200;48.810;12.352;2023-06-19T14:13:10;9.55;;;8.65;;
74674;SDS011;63200;48.810;12.352;2023-06-19T14:15:36;10.82;;;7.75;;
74674;SDS011;63200;48.810;12.352;2023-06-19T14:18:01;7.93;;;7.13;;
74674;SDS011;63200;48.810;12.352;2023-06-19T14:20:27;11.27;;;8.15;;
74674;SDS011;63200;48.810;12.352;2023-06-19T14:22:52;9.77;;;7.97;;
74674;SDS011;63200;48.810;12.352;2023-06-19T14:25:17;11.82;;;8.43;;